Time;durP1;ratioP1;P1;durP2;ratioP2;P2;SDS_P1;SDS_P2;PMS_P1;PMS_P2;Temp;Humidity;BMP_temperature;BMP_pressure;BME280_temperature;BME280_humidity;BME280_pressure;Samples;Min_cycle;Max_cycle;Signal;HPM_P1;HPM_P2
2021/05/18 00:00:53;;;;;;;3.07;0.80;;;11.80;99.90;;;;;;6225058;23;20387;-88
2021/05/18 00:03:19;;;;;;;0.97;0.70;;;11.80;99.90;;;;;;6223162;23;20436;-88
2021/05/18 00:05:48;;;;;;;0.93;0.60;;;11.80;99.90;;;;;;6221694;23;20439;-88
2021/05/18 00:08:15;;;;;;;1.33;0.50;;;11.80;99.90;;;;;;6220413;23;20396;-88
2021/05/18 00:13:31;;;;;;;0.83;0.67;;;11.80;99.90;;;;;;6235148;23;20369;-88
2021/05/18 00:16:00;;;;;;;1.17;1.00;;;11.80;99.90;;;;;;6243212;23;20445;-87
2021/05/18 00:18:27;;;;;;;1.70;1.40;;;11.80;99.90;;;;;;6228571;23;20496;-87
2021/05/18 00:20:54;;;;;;;0.80;0.67;;;11.80;99.90;;;;;;6243051;22;20427;-87
2021/05/18 00:23:21;;;;;;;1.33;0.70;;;11.80;99.90;;;;;;6237703;23;20423;-87
2021/05/18 00:25:48;;;;;;;1.27;0.60;;;11.60;99.90;;;;;;6231595;23;20441;-88
2021/05/18 00:28:15;;;;;;;1.10;0.70;;;11.50;99.90;;;;;;6240056;23;20476;-87
2021/05/18 00:30:42;;;;;;;1.47;0.70;;;11.50;99.90;;;;;;6244301;22;20407;-87
2021/05/18 00:33:16;;;;;;;0.70;0.70;;;11.50;99.90;;;;;;6241185;22;20512;-88
2021/05/18 00:35:43;;;;;;;0.80;0.60;;;11.50;99.90;;;;;;6240304;23;20436;-87
2021/05/18 00:38:10;;;;;;;1.10;0.70;;;11.50;99.90;;;;;;6243373;22;20417;-88
2021/05/18 00:40:37;;;;;;;1.07;0.60;;;11.50;99.90;;;;;;6237242;23;20548;-88
2021/05/18 00:43:03;;;;;;;1.57;0.63;;;11.60;99.90;;;;;;6224888;23;20845;-88
2021/05/18 00:45:32;;;;;;;0.60;0.40;;;11.60;99.90;;;;;;6218808;23;20444;-88
2021/05/18 00:48:00;;;;;;;3.33;0.80;;;11.60;99.90;;;;;;6222095;23;20428;-88
2021/05/18 00:50:27;;;;;;;0.63;0.50;;;11.60;99.90;;;;;;6235864;23;20959;-88
2021/05/18 00:52:54;;;;;;;0.90;0.70;;;11.60;99.90;;;;;;6225292;23;20405;-88
2021/05/18 00:55:30;;;;;;;1.77;0.80;;;11.60;99.90;;;;;;6217459;23;20407;-88
2021/05/18 01:00:41;;;;;;;0.80;0.50;;;11.60;99.90;;;;;;6216693;23;20455;-88
2021/05/18 01:03:09;;;;;;;5.00;0.90;;;11.60;99.90;;;;;;6216454;23;20394;-88
2021/05/18 01:08:20;;;;;;;1.00;0.67;;;11.70;99.90;;;;;;6217178;23;20373;-88
2021/05/18 01:10:46;;;;;;;0.90;0.60;;;11.70;99.90;;;;;;6216592;23;20490;-89
2021/05/18 01:13:13;;;;;;;1.33;0.60;;;11.70;99.90;;;;;;6216925;23;20926;-89
2021/05/18 01:15:39;;;;;;;0.70;0.50;;;11.60;99.90;;;;;;6217748;23;20408;-89
2021/05/18 01:18:06;;;;;;;0.80;0.53;;;11.60;99.90;;;;;;6221216;23;20394;-88
2021/05/18 01:20:37;;;;;;;0.97;0.60;;;11.60;99.90;;;;;;6224822;23;20488;-88
2021/05/18 01:23:03;;;;;;;0.90;0.50;;;11.60;99.90;;;;;;6217368;23;20369;-86
2021/05/18 01:25:30;;;;;;;1.50;0.73;;;11.60;99.90;;;;;;6216604;23;20450;-87
2021/05/18 01:27:56;;;;;;;0.87;0.57;;;11.70;99.90;;;;;;6222145;23;20504;-87
2021/05/18 01:30:22;;;;;;;0.87;0.60;;;11.70;99.90;;;;;;6218629;23;20770;-87
2021/05/18 01:32:48;;;;;;;0.90;0.70;;;11.80;99.90;;;;;;6223894;23;20389;-88
2021/05/18 01:35:15;;;;;;;0.60;0.53;;;11.80;99.90;;;;;;6223350;23;20893;-88
2021/05/18 01:37:43;;;;;;;0.90;0.60;;;11.70;99.90;;;;;;6219434;23;20959;-88
2021/05/18 01:42:44;;;;;;;1.10;0.40;;;11.80;99.90;;;;;;6235293;22;20390;-86
2021/05/18 01:43:02;;;;;;;1.87;0.80;;;11.80;99.90;;;;;;6242444;22;20409;-87
2021/05/18 01:45:30;;;;;;;0.70;0.60;;;11.80;99.90;;;;;;6233477;23;20422;-87
2021/05/18 01:47:58;;;;;;;1.50;0.90;;;11.80;99.90;;;;;;6228182;23;20225;-87
2021/05/18 01:50:28;;;;;;;0.97;0.77;;;11.80;99.90;;;;;;6232893;23;20413;-87
2021/05/18 01:52:56;;;;;;;1.20;0.80;;;11.80;99.90;;;;;;6231413;23;20399;-87
2021/05/18 01:55:27;;;;;;;0.90;0.67;;;11.80;99.90;;;;;;6222190;23;20437;-87
2021/05/18 01:57:54;;;;;;;1.40;0.60;;;11.70;99.90;;;;;;6225823;23;20520;-88
2021/05/18 02:00:22;;;;;;;0.97;0.83;;;11.70;99.90;;;;;;6220825;23;20410;-87
2021/05/18 02:02:49;;;;;;;0.80;0.60;;;11.60;99.90;;;;;;6223200;23;20401;-87
2021/05/18 02:05:18;;;;;;;1.30;0.70;;;11.60;99.90;;;;;;6223804;23;20437;-88
2021/05/18 02:07:54;;;;;;;1.00;0.80;;;11.60;99.90;;;;;;6221788;23;20516;-88
2021/05/18 02:10:22;;;;;;;0.60;0.60;;;11.50;99.90;;;;;;6219373;23;20445;-88
2021/05/18 02:12:52;;;;;;;0.70;0.53;;;11.60;99.90;;;;;;6221463;23;20408;-88
2021/05/18 02:15:35;;;;;;;0.70;0.60;;;11.60;99.90;;;;;;6238438;22;20412;-89
2021/05/18 02:21:03;;;;;;;0.83;0.50;;;11.60;99.90;;;;;;6217569;23;20400;-88
2021/05/18 02:26:16;;;;;;;0.90;0.60;;;11.50;99.90;;;;;;6227885;23;20468;-88
2021/05/18 02:28:42;;;;;;;3.60;0.87;;;11.50;99.90;;;;;;6234851;23;20458;-88
2021/05/18 02:31:08;;;;;;;1.13;0.83;;;11.40;99.90;;;;;;6241401;22;20456;-87
2021/05/18 02:33:34;;;;;;;0.97;0.63;;;11.50;99.90;;;;;;6241279;22;20413;-88
2021/05/18 02:36:02;;;;;;;0.70;0.50;;;11.40;99.90;;;;;;6240180;22;20476;-86
2021/05/18 02:38:28;;;;;;;2.60;0.80;;;11.50;99.90;;;;;;6233304;22;20423;-88
2021/05/18 02:40:55;;;;;;;2.27;0.80;;;11.50;99.90;;;;;;6226890;23;20429;-88
2021/05/18 02:43:25;;;;;;;0.67;0.60;;;11.50;99.90;;;;;;6220364;23;20378;-88
2021/05/18 02:46:02;;;;;;;1.73;0.70;;;11.50;99.90;;;;;;6220134;23;20443;-88
2021/05/18 02:51:16;;;;;;;1.83;1.10;;;11.50;99.90;;;;;;6218483;23;21026;-89
2021/05/18 02:53:42;;;;;;;1.23;0.70;;;11.50;99.90;;;;;;6218211;23;20732;-88
2021/05/18 02:56:20;;;;;;;1.73;0.80;;;11.50;99.90;;;;;;6220247;23;20421;-87
2021/05/18 02:58:55;;;;;;;1.10;0.70;;;11.50;99.90;;;;;;6219637;23;20408;-88
2021/05/18 03:01:23;;;;;;;0.80;0.70;;;11.50;99.90;;;;;;6219967;23;20405;-88
2021/05/18 03:03:53;;;;;;;1.30;0.90;;;11.50;99.90;;;;;;6216745;23;20479;-87
2021/05/18 03:06:20;;;;;;;1.40;0.77;;;11.50;99.90;;;;;;6216415;23;20515;-87
2021/05/18 03:08:51;;;;;;;2.07;1.07;;;11.50;99.90;;;;;;6218022;23;20410;-88
2021/05/18 03:11:18;;;;;;;0.80;0.67;;;11.50;99.90;;;;;;6238480;22;20449;-87
2021/05/18 03:13:47;;;;;;;1.63;1.10;;;11.50;99.90;;;;;;6242400;23;20439;-87
2021/05/18 03:16:24;;;;;;;0.90;0.70;;;11.50;99.90;;;;;;6228843;22;20430;-88
2021/05/18 03:19:13;;;;;;;3.80;0.70;;;11.50;99.90;;;;;;6242877;22;20404;-87
2021/05/18 03:21:50;;;;;;;2.13;0.70;;;11.50;99.90;;;;;;6223318;22;20409;-88
2021/05/18 03:24:25;;;;;;;0.93;0.70;;;11.40;99.90;;;;;;6219012;23;20448;-88
2021/05/18 03:26:51;;;;;;;1.73;1.07;;;11.50;99.90;;;;;;6215364;23;20448;-88
2021/05/18 03:29:31;;;;;;;2.40;1.37;;;11.40;99.90;;;;;;6216225;23;20409;-88
2021/05/18 03:34:52;;;;;;;1.83;1.30;;;11.50;99.90;;;;;;6225119;23;20403;-88
2021/05/18 03:37:36;;;;;;;1.33;0.50;;;11.50;99.90;;;;;;6222828;23;20440;-88
2021/05/18 03:40:12;;;;;;;0.77;0.70;;;11.50;99.90;;;;;;6225360;23;20373;-87
2021/05/18 03:42:45;;;;;;;2.43;0.73;;;11.40;99.90;;;;;;6241757;22;20397;-87
2021/05/18 03:45:16;;;;;;;1.03;0.70;;;11.40;99.90;;;;;;6224279;23;20805;-88
2021/05/18 03:53:42;;;;;;;1.70;0.77;;;11.30;99.90;;;;;;6217269;23;20373;-88
2021/05/18 03:58:59;;;;;;;0.83;0.60;;;11.30;99.90;;;;;;6223090;23;20400;-88
2021/05/18 04:04:16;;;;;;;1.23;0.60;;;11.40;99.90;;;;;;6241689;23;20459;-87
2021/05/18 04:12:43;;;;;;;1.80;0.70;;;11.40;99.90;;;;;;6236466;23;20373;-87
2021/05/18 04:17:57;;;;;;;0.90;0.70;;;11.50;99.90;;;;;;6222787;23;20439;-88
2021/05/18 04:20:35;;;;;;;3.90;1.07;;;11.60;99.90;;;;;;6219139;23;20405;-88
2021/05/18 04:23:22;;;;;;;0.90;0.70;;;11.60;99.90;;;;;;6218223;23;20878;-88
2021/05/18 04:26:09;;;;;;;1.23;0.80;;;11.60;99.90;;;;;;6238608;22;20432;-87
2021/05/18 04:43:01;;;;;;;2.10;1.03;;;11.70;99.90;;;;;;6240137;22;20392;-88
2021/05/18 04:51:04;;;;;;;1.67;1.47;;;11.90;99.90;;;;;;6224649;22;20447;-87
2021/05/18 04:53:43;;;;;;;1.27;0.90;;;11.90;99.90;;;;;;6229447;22;20400;-88
2021/05/18 05:01:48;;;;;;;2.03;1.30;;;12.00;99.90;;;;;;6243942;22;20396;-88
2021/05/18 05:06:59;;;;;;;1.70;1.20;;;12.00;99.90;;;;;;6185871;22;20429;-89
2021/05/18 05:09:30;;;;;;;2.37;1.10;;;12.00;99.90;;;;;;6239614;22;20453;-88
2021/05/18 05:12:34;;;;;;;3.30;0.87;;;12.00;99.90;;;;;;6243720;22;20394;-88
2021/05/18 05:15:01;;;;;;;2.33;1.20;;;12.00;99.90;;;;;;6243307;22;20391;-88
2021/05/18 05:17:28;;;;;;;1.10;0.90;;;12.10;99.90;;;;;;6230334;23;20434;-88
2021/05/18 05:19:55;;;;;;;3.43;0.83;;;12.10;99.90;;;;;;6222678;23;20426;-89
2021/05/18 05:22:22;;;;;;;3.37;1.13;;;12.10;99.90;;;;;;6223712;23;20421;-89
2021/05/18 05:24:49;;;;;;;1.83;1.73;;;12.20;99.90;;;;;;6226507;23;20450;-89
2021/05/18 05:27:16;;;;;;;2.13;1.00;;;12.20;99.90;;;;;;6224737;23;20466;-88
2021/05/18 05:44:10;;;;;;;1.70;1.07;;;12.00;99.90;;;;;;6130807;23;20448;-88
2021/05/18 05:53:24;;;;;;;1.30;1.20;;;11.80;99.90;;;;;;5947646;23;20418;-88
2021/05/18 07:15:30;;;;;;;;;;;;;;;;;;;;;
2021/05/18 07:42:39;;;;;;;2.40;0.93;;;15.80;98.80;;;;;;6092317;23;20481;-87
2021/05/18 08:02:19;;;;;;;1.40;1.03;;;15.10;98.50;;;;;;6166612;23;20450;-89
2021/05/18 08:07:16;;;;;;;2.30;1.60;;;14.60;99.70;;;;;;6161881;23;20799;-88
2021/05/18 08:13:01;;;;;;;2.00;1.40;;;14.40;99.80;;;;;;6071459;23;20459;-88
2021/05/18 10:36:01;;;;;;;2.83;1.10;;;20.30;57.10;;;;;;6157919;23;20358;-88
2021/05/18 10:38:34;;;;;;;2.73;1.10;;;19.70;65.70;;;;;;6159806;23;20721;-88
2021/05/18 10:51:49;;;;;;;1.57;0.83;;;22.20;58.70;;;;;;6031134;23;20471;-86
2021/05/18 10:57:39;;;;;;;4.10;1.50;;;22.60;58.60;;;;;;6174505;22;20437;-86
2021/05/18 11:00:09;;;;;;;2.50;0.90;;;22.30;57.00;;;;;;6188180;23;20394;-87
2021/05/18 11:02:37;;;;;;;2.57;0.80;;;23.20;58.20;;;;;;6188105;23;20499;-87
2021/05/18 11:05:06;;;;;;;2.63;1.23;;;24.00;57.90;;;;;;6202581;22;20450;-86
2021/05/18 11:07:37;;;;;;;1.30;1.00;;;22.40;55.90;;;;;;6213048;22;20421;-86
2021/05/18 11:10:06;;;;;;;4.73;1.70;;;21.30;57.80;;;;;;6197767;23;20886;-87
2021/05/18 11:12:54;;;;;;;3.20;2.67;;;20.80;59.70;;;;;;6199323;23;20418;-87
2021/05/18 11:15:51;;;;;;;;;;;;;;;;;;;;;
2021/05/18 11:18:33;;;;;;;3.80;1.87;;;20.60;60.60;;;;;;6189722;23;20414;-86
2021/05/18 11:21:11;;;;;;;1.80;0.73;;;23.70;56.50;;;;;;6191654;23;20406;-88
2021/05/18 11:23:40;;;;;;;3.07;1.13;;;24.90;50.40;;;;;;6198073;23;20405;-88
2021/05/18 11:26:28;;;;;;;2.40;0.90;;;24.90;50.10;;;;;;6192277;23;20445;-88
2021/05/18 11:32:10;;;;;;;4.60;0.97;;;25.60;50.00;;;;;;6176875;23;20419;-88
2021/05/18 11:35:12;;;;;;;2.03;1.00;;;26.40;49.50;;;;;;6190535;23;20406;-89
2021/05/18 11:38:04;;;;;;;2.10;1.00;;;27.10;45.10;;;;;;6186658;23;20512;-87
2021/05/18 11:40:42;;;;;;;3.27;0.90;;;28.10;45.30;;;;;;6191355;22;20431;-88
2021/05/18 11:43:24;;;;;;;1.20;0.83;;;28.50;44.30;;;;;;6207461;23;20410;-87
2021/05/18 11:46:02;;;;;;;1.07;0.93;;;29.30;40.20;;;;;;6195425;23;20404;-88
2021/05/18 11:48:31;;;;;;;2.23;1.20;;;26.80;41.80;;;;;;6192341;23;20433;-87
2021/05/18 11:51:04;;;;;;;2.53;1.20;;;24.30;43.80;;;;;;6190514;23;20409;-87
2021/05/18 11:53:36;;;;;;;3.20;1.27;;;22.60;46.90;;;;;;6189440;23;20406;-86
2021/05/18 11:56:19;;;;;;;3.43;1.00;;;20.50;53.40;;;;;;6190236;23;20426;-86
2021/05/18 11:58:57;;;;;;;1.17;0.60;;;18.40;59.70;;;;;;6195586;23;20441;-86
2021/05/18 12:01:38;;;;;;;3.97;1.30;;;17.20;62.70;;;;;;6211888;23;20414;-88
2021/05/18 12:04:11;;;;;;;2.07;0.70;;;16.70;68.60;;;;;;6192699;23;20608;-87
2021/05/18 12:06:41;;;;;;;1.93;0.60;;;16.90;68.60;;;;;;6190393;23;20485;-86
2021/05/18 12:09:15;;;;;;;5.67;0.90;;;17.10;68.50;;;;;;6190920;23;20817;-87
2021/05/18 12:11:51;;;;;;;2.80;0.90;;;17.10;69.40;;;;;;6194968;23;20425;-86
2021/05/18 12:14:20;;;;;;;1.87;1.00;;;17.40;70.90;;;;;;6207589;23;20424;-87
2021/05/18 12:16:55;;;;;;;1.30;0.90;;;19.10;68.00;;;;;;6210583;22;20472;-86
2021/05/18 12:19:30;;;;;;;3.40;1.00;;;21.30;60.60;;;;;;6191967;23;20428;-86
2021/05/18 12:22:16;;;;;;;3.90;1.07;;;20.90;57.70;;;;;;6190471;23;20865;-86
2021/05/18 12:24:47;;;;;;;4.40;0.90;;;19.40;59.10;;;;;;6197662;23;20410;-88
2021/05/18 12:27:14;;;;;;;1.93;1.00;;;18.40;62.80;;;;;;6193785;23;20413;-83
2021/05/18 12:29:43;;;;;;;3.80;0.90;;;19.50;64.00;;;;;;6199368;23;20432;-85
2021/05/18 12:32:18;;;;;;;2.10;0.80;;;21.20;61.60;;;;;;6197176;23;20469;-84
2021/05/18 12:34:45;;;;;;;2.40;1.03;;;22.60;54.60;;;;;;6195091;23;20476;-84
2021/05/18 12:37:12;;;;;;;3.40;1.20;;;22.90;53.70;;;;;;6194292;23;20436;-83
2021/05/18 12:39:42;;;;;;;2.13;1.13;;;23.60;53.80;;;;;;6198333;23;20398;-83
2021/05/18 12:42:12;;;;;;;3.13;0.90;;;23.90;51.90;;;;;;6198728;23;20419;-84
2021/05/18 12:44:53;;;;;;;1.23;0.60;;;25.00;51.40;;;;;;6192673;23;20396;-83
2021/05/18 12:47:32;;;;;;;2.07;0.97;;;25.00;48.90;;;;;;6205244;23;20417;-83
2021/05/18 12:49:59;;;;;;;3.60;1.10;;;23.90;49.90;;;;;;6194979;23;20481;-83
2021/05/18 12:52:35;;;;;;;2.40;0.80;;;24.00;50.30;;;;;;6193563;23;20434;-82
2021/05/18 12:55:02;;;;;;;4.10;1.00;;;22.50;51.70;;;;;;6196734;23;20440;-83
2021/05/18 12:57:29;;;;;;;5.23;1.10;;;20.60;52.80;;;;;;6208086;23;20428;-83
2021/05/18 12:59:57;;;;;;;4.70;1.27;;;19.10;58.30;;;;;;6210966;23;20416;-85
2021/05/18 13:02:33;;;;;;;1.23;0.50;;;18.50;65.80;;;;;;6211000;22;20436;-85
2021/05/18 13:05:17;;;;;;;3.60;1.47;;;17.50;71.80;;;;;;6212018;22;20461;-85
2021/05/18 13:07:45;;;;;;;1.43;0.87;;;18.10;75.80;;;;;;6212367;22;20497;-88
2021/05/18 13:10:19;;;;;;;2.07;1.00;;;19.80;68.70;;;;;;6212855;23;20481;-89
2021/05/18 13:12:47;;;;;;;4.30;1.37;;;21.10;67.90;;;;;;6212828;22;20403;-89
2021/05/18 13:15:22;;;;;;;1.70;0.80;;;22.20;60.80;;;;;;6210170;23;20407;-88
2021/05/18 13:17:54;;;;;;;1.10;0.90;;;22.80;60.60;;;;;;6209973;23;20517;-88
2021/05/18 13:20:21;;;;;;;1.60;0.77;;;23.40;57.40;;;;;;6193585;23;20399;-87
2021/05/18 13:22:52;;;;;;;3.47;0.80;;;24.00;56.20;;;;;;6189149;23;20410;-85
2021/05/18 13:28:04;;;;;;;2.20;0.80;;;24.70;54.20;;;;;;6192132;23;20947;-88
2021/05/18 13:30:34;;;;;;;1.60;0.90;;;25.10;52.30;;;;;;6193059;23;20499;-87
2021/05/18 13:33:07;;;;;;;2.70;1.17;;;24.90;49.80;;;;;;6190491;23;20431;-88
2021/05/18 13:35:37;;;;;;;1.60;0.90;;;24.50;51.40;;;;;;6189540;23;20441;-87
2021/05/18 13:38:06;;;;;;;2.63;0.80;;;23.80;50.60;;;;;;6190405;23;20412;-89
2021/05/18 13:40:33;;;;;;;2.00;0.87;;;22.70;51.10;;;;;;6190497;23;20413;-87
2021/05/18 13:43:02;;;;;;;1.77;0.80;;;22.40;53.30;;;;;;6194237;23;20414;-88
2021/05/18 13:45:29;;;;;;;0.93;0.60;;;22.70;50.80;;;;;;6193919;23;20718;-88
2021/05/18 13:48:07;;;;;;;2.20;0.70;;;21.90;50.10;;;;;;6199711;23;20431;-86
2021/05/18 13:50:36;;;;;;;2.63;0.90;;;21.20;52.90;;;;;;6205321;23;20441;-87
2021/05/18 13:53:04;;;;;;;1.70;0.80;;;20.50;53.10;;;;;;6177730;23;20445;-87
2021/05/18 13:55:40;;;;;;;3.30;1.20;;;20.30;53.20;;;;;;6194336;23;20450;-87
2021/05/18 13:58:07;;;;;;;1.80;1.00;;;21.70;53.70;;;;;;6199418;23;20849;-87
2021/05/18 14:00:35;;;;;;;1.33;0.73;;;22.50;52.40;;;;;;6197333;23;20444;-86
2021/05/18 14:03:01;;;;;;;1.13;0.77;;;21.70;49.20;;;;;;6194213;23;20443;-87
2021/05/18 14:05:34;;;;;;;3.13;0.77;;;19.90;53.00;;;;;;6207598;23;20412;-86
2021/05/18 14:08:27;;;;;;;1.70;0.90;;;18.80;57.10;;;;;;6196182;23;20972;-86
2021/05/18 14:10:59;;;;;;;5.37;1.37;;;17.70;64.20;;;;;;6194139;23;20422;-87
2021/05/18 14:13:32;;;;;;;3.87;1.23;;;16.90;78.80;;;;;;6206412;23;20455;-86
2021/05/18 14:16:02;;;;;;;2.97;1.00;;;15.80;85.60;;;;;;6206286;23;20433;-88
2021/05/18 14:18:28;;;;;;;1.83;0.90;;;14.50;89.10;;;;;;6212034;22;20425;-87
2021/05/18 14:20:56;;;;;;;3.70;0.77;;;13.50;92.40;;;;;;6213372;22;20395;-86
2021/05/18 14:23:24;;;;;;;2.20;0.80;;;13.00;94.10;;;;;;6213129;22;20428;-86
2021/05/18 14:25:51;;;;;;;1.30;0.90;;;12.90;97.90;;;;;;6209299;23;20441;-87
2021/05/18 14:28:17;;;;;;;1.97;1.40;;;12.90;99.90;;;;;;6208092;23;20483;-86
2021/05/18 14:30:44;;;;;;;1.97;1.00;;;12.80;99.90;;;;;;6207629;23;20454;-85
2021/05/18 14:33:11;;;;;;;6.30;1.37;;;13.50;99.90;;;;;;6199410;23;20385;-85
2021/05/18 14:35:37;;;;;;;2.50;0.83;;;14.10;99.90;;;;;;6203779;23;20463;-86
2021/05/18 14:38:08;;;;;;;3.70;1.20;;;15.30;99.90;;;;;;6191807;23;20434;-85
2021/05/18 14:43:53;;;;;;;4.47;1.83;;;16.10;98.40;;;;;;6181129;23;20425;-86
2021/05/18 14:46:29;;;;;;;4.00;0.80;;;15.90;97.20;;;;;;6191245;23;20388;-86
2021/05/18 14:57:13;;;;;;;4.13;0.90;;;15.60;96.50;;;;;;6185632;23;20435;-87
2021/05/18 14:59:39;;;;;;;1.37;0.60;;;15.60;95.60;;;;;;6187971;23;20394;-86
2021/05/18 15:02:05;;;;;;;4.97;1.57;;;15.50;93.80;;;;;;6191287;23;20402;-85
2021/05/18 15:04:32;;;;;;;2.20;0.93;;;15.50;94.20;;;;;;6210675;22;20496;-85
2021/05/18 15:06:59;;;;;;;2.80;1.20;;;15.70;93.80;;;;;;6200572;22;20429;-87
2021/05/18 15:09:25;;;;;;;1.00;0.87;;;15.90;94.30;;;;;;6193891;23;20401;-85
2021/05/18 15:11:52;;;;;;;2.33;0.87;;;16.10;92.90;;;;;;6201410;23;20404;-86
2021/05/18 15:14:19;;;;;;;2.53;1.00;;;16.10;90.70;;;;;;6202474;23;20610;-86
2021/05/18 15:16:45;;;;;;;4.00;0.90;;;16.10;91.20;;;;;;6191860;23;20441;-86
2021/05/18 15:19:13;;;;;;;1.63;0.70;;;16.20;90.10;;;;;;6187768;23;20433;-86
2021/05/18 15:21:41;;;;;;;4.50;1.70;;;16.20;87.50;;;;;;6187097;23;20409;-85
2021/05/18 15:24:09;;;;;;;1.40;0.90;;;16.30;89.70;;;;;;6189464;23;20401;-88
2021/05/18 15:26:35;;;;;;;1.50;0.80;;;16.30;83.10;;;;;;6187549;23;20402;-87
2021/05/18 15:29:03;;;;;;;2.60;2.20;;;16.20;85.90;;;;;;6186048;23;20556;-87
2021/05/18 15:31:29;;;;;;;1.50;0.70;;;16.20;87.90;;;;;;6186096;23;20885;-87
2021/05/18 15:33:56;;;;;;;1.03;0.50;;;16.20;87.10;;;;;;6185882;23;20481;-87
2021/05/18 15:36:22;;;;;;;1.57;0.73;;;16.20;85.50;;;;;;6187372;23;20460;-86
2021/05/18 15:38:50;;;;;;;1.63;1.13;;;16.10;84.80;;;;;;6187426;23;20437;-86
2021/05/18 15:41:16;;;;;;;1.03;0.80;;;16.20;86.10;;;;;;6185609;23;20395;-85
2021/05/18 15:43:44;;;;;;;2.50;1.00;;;16.20;84.30;;;;;;6198540;23;20473;-86
2021/05/18 15:46:13;;;;;;;2.43;0.93;;;16.20;84.60;;;;;;6194361;23;20504;-88
2021/05/18 15:48:40;;;;;;;1.00;0.63;;;16.20;85.20;;;;;;6187917;23;21172;-87
2021/05/18 15:51:06;;;;;;;5.77;3.93;;;16.20;86.90;;;;;;6184879;23;20431;-87
2021/05/18 15:53:33;;;;;;;4.63;2.23;;;16.20;87.90;;;;;;6186938;23;20441;-87
2021/05/18 15:56:00;;;;;;;4.37;1.80;;;16.20;87.80;;;;;;6187064;23;20559;-87
2021/05/18 15:58:29;;;;;;;2.50;1.37;;;16.20;86.70;;;;;;6187323;23;20437;-88
2021/05/18 16:00:58;;;;;;;1.20;0.73;;;16.20;86.80;;;;;;6189751;23;20456;-88
2021/05/18 16:03:26;;;;;;;2.03;1.47;;;16.20;83.50;;;;;;6196017;23;20873;-84
2021/05/18 16:05:53;;;;;;;4.13;1.03;;;16.20;85.30;;;;;;6195639;23;21014;-86
2021/05/18 16:11:23;;;;;;;2.30;1.37;;;16.30;84.60;;;;;;6200116;23;20385;-86
2021/05/18 16:16:34;;;;;;;2.10;0.90;;;16.20;84.90;;;;;;6101484;23;20440;-85
2021/05/18 16:19:02;;;;;;;3.67;1.10;;;16.20;84.30;;;;;;6188103;23;20508;-87
2021/05/18 16:21:50;;;;;;;5.23;2.63;;;15.90;84.80;;;;;;6199218;23;20410;-86
2021/05/18 16:24:16;;;;;;;10.27;4.57;;;15.30;91.40;;;;;;6213525;22;20405;-87
2021/05/18 16:26:46;;;;;;;2.63;1.20;;;14.70;95.90;;;;;;6206202;23;20439;-87
2021/05/18 16:29:15;;;;;;;3.10;1.40;;;14.00;97.40;;;;;;6194154;23;20453;-86
2021/05/18 16:31:41;;;;;;;3.63;1.20;;;13.50;99.20;;;;;;6188152;23;20405;-85
2021/05/18 16:34:10;;;;;;;1.60;1.07;;;13.10;99.90;;;;;;6187019;23;20426;-85
2021/05/18 16:36:40;;;;;;;3.87;1.23;;;12.80;99.90;;;;;;6187399;23;20436;-85
2021/05/18 16:39:10;;;;;;;1.83;1.20;;;12.70;99.90;;;;;;6188244;23;20427;-85
2021/05/18 16:41:38;;;;;;;1.80;1.60;;;12.60;99.90;;;;;;6188696;23;20395;-85
2021/05/18 16:44:09;;;;;;;3.93;1.20;;;12.60;99.90;;;;;;6192018;23;20424;-85
2021/05/18 16:46:36;;;;;;;4.37;2.03;;;12.60;99.90;;;;;;6201056;23;20510;-85
2021/05/18 16:49:07;;;;;;;3.27;1.90;;;12.60;99.90;;;;;;6194182;23;20477;-85
2021/05/18 16:51:36;;;;;;;1.93;1.03;;;12.60;99.90;;;;;;6191026;23;20925;-86
2021/05/18 16:54:07;;;;;;;2.10;1.00;;;12.60;99.90;;;;;;6190151;23;20412;-86
2021/05/18 16:56:34;;;;;;;3.53;1.57;;;12.60;99.90;;;;;;6186587;23;20418;-86
2021/05/18 16:59:06;;;;;;;3.93;2.10;;;12.50;99.90;;;;;;6188267;23;20468;-85
2021/05/18 17:01:35;;;;;;;3.90;2.87;;;12.60;99.90;;;;;;6188018;23;20375;-87
2021/05/18 17:04:04;;;;;;;6.03;3.33;;;12.60;99.90;;;;;;6187802;23;20418;-86
2021/05/18 17:06:39;;;;;;;4.90;2.80;;;12.80;99.90;;;;;;6190133;23;20414;-85
2021/05/18 17:09:07;;;;;;;5.00;2.70;;;12.90;99.90;;;;;;6188439;23;20433;-84
2021/05/18 17:11:36;;;;;;;8.27;2.80;;;13.00;99.90;;;;;;6187916;23;20423;-85
2021/05/18 17:14:03;;;;;;;4.80;1.97;;;13.10;99.90;;;;;;6190716;23;20425;-86
2021/05/18 17:16:30;;;;;;;2.50;1.57;;;13.30;99.90;;;;;;6187372;23;20436;-86
2021/05/18 17:18:57;;;;;;;6.17;1.90;;;13.40;99.90;;;;;;6188297;23;20422;-86
2021/05/18 17:21:24;;;;;;;2.30;1.40;;;13.50;99.90;;;;;;6188210;23;20381;-87
2021/05/18 17:23:54;;;;;;;4.03;1.63;;;13.60;99.90;;;;;;6184297;23;20435;-85
2021/05/18 17:26:26;;;;;;;2.90;1.50;;;13.60;99.90;;;;;;6187944;23;20413;-86
2021/05/18 17:28:56;;;;;;;4.70;1.73;;;13.60;99.90;;;;;;6203122;23;20425;-86
2021/05/18 17:31:31;;;;;;;11.70;5.70;;;13.50;99.90;;;;;;6202173;23;20397;-85
2021/05/18 17:34:12;;;;;;;12.10;5.30;;;13.50;99.90;;;;;;6195604;23;20398;-86
2021/05/18 17:36:39;;;;;;;3.47;1.70;;;13.30;99.90;;;;;;6192737;22;20466;-87
2021/05/18 17:39:07;;;;;;;2.57;2.10;;;13.00;99.90;;;;;;6193674;23;20405;-86
2021/05/18 17:41:33;;;;;;;8.50;4.70;;;12.70;99.90;;;;;;6197756;23;20407;-87
2021/05/18 17:43:59;;;;;;;6.73;2.37;;;12.60;99.90;;;;;;6188862;23;20398;-86
2021/05/18 17:46:27;;;;;;;2.97;2.10;;;12.40;99.90;;;;;;6186307;23;20937;-87
2021/05/18 17:48:53;;;;;;;2.13;1.47;;;12.30;99.90;;;;;;6185610;23;20407;-87
2021/05/18 17:51:20;;;;;;;4.20;2.50;;;12.20;99.90;;;;;;6187312;23;20406;-87
2021/05/18 17:53:46;;;;;;;3.00;2.20;;;12.10;99.90;;;;;;6196956;23;20410;-87
2021/05/18 17:56:13;;;;;;;5.00;3.10;;;12.00;99.90;;;;;;6210017;23;20455;-87
2021/05/18 17:58:40;;;;;;;6.90;3.83;;;12.00;99.90;;;;;;6196261;23;20406;-87
2021/05/18 18:01:06;;;;;;;2.97;2.67;;;12.00;99.90;;;;;;6205882;22;20385;-86
2021/05/18 18:03:45;;;;;;;4.03;2.50;;;12.00;99.90;;;;;;6197734;23;20418;-86
2021/05/18 18:06:11;;;;;;;2.60;1.40;;;12.00;99.90;;;;;;6187755;23;20437;-87
2021/05/18 18:08:41;;;;;;;2.23;1.23;;;11.90;99.90;;;;;;6189185;23;20438;-86
2021/05/18 18:11:09;;;;;;;5.17;2.33;;;11.90;99.90;;;;;;6200551;22;20410;-87
2021/05/18 18:13:38;;;;;;;3.97;2.30;;;11.80;99.90;;;;;;6197339;23;20475;-87
2021/05/18 18:16:07;;;;;;;4.83;2.10;;;11.80;99.90;;;;;;6187139;23;20441;-87
2021/05/18 18:18:33;;;;;;;1.53;1.40;;;11.80;99.90;;;;;;6199250;23;20450;-86
2021/05/18 18:21:01;;;;;;;2.50;0.90;;;11.80;99.90;;;;;;6193804;23;20451;-87
2021/05/18 18:23:28;;;;;;;3.17;1.10;;;11.70;99.90;;;;;;6197669;23;20751;-87
2021/05/18 18:25:54;;;;;;;3.37;1.23;;;11.70;99.90;;;;;;6187594;23;20457;-87
2021/05/18 18:28:20;;;;;;;3.70;2.07;;;11.70;99.90;;;;;;6187573;23;20413;-87
2021/05/18 18:30:47;;;;;;;3.17;1.37;;;11.60;99.90;;;;;;6185541;23;20409;-87
2021/05/18 18:33:13;;;;;;;1.60;1.23;;;11.60;99.90;;;;;;6188943;23;20426;-86
2021/05/18 18:35:40;;;;;;;1.17;0.80;;;11.50;99.90;;;;;;6186620;23;20445;-87
2021/05/18 18:38:09;;;;;;;3.00;1.57;;;11.60;99.90;;;;;;6187065;23;20434;-87
2021/05/18 18:40:36;;;;;;;1.97;1.13;;;11.60;99.90;;;;;;6187913;23;20418;-87
2021/05/18 18:43:03;;;;;;;3.47;1.67;;;11.60;99.90;;;;;;6186796;23;20412;-87
2021/05/18 18:45:30;;;;;;;1.27;1.03;;;11.60;99.90;;;;;;6186814;23;20426;-87
2021/05/18 18:47:58;;;;;;;1.37;1.20;;;11.60;99.90;;;;;;6189423;23;20501;-87
2021/05/18 18:50:28;;;;;;;2.30;1.60;;;11.60;99.90;;;;;;6196272;23;20398;-86
2021/05/18 18:52:58;;;;;;;1.80;1.63;;;11.60;99.90;;;;;;6190075;23;20419;-86
2021/05/18 18:55:25;;;;;;;4.63;1.40;;;11.70;99.90;;;;;;6190656;23;20397;-87
2021/05/18 18:57:51;;;;;;;1.77;1.53;;;11.70;99.90;;;;;;6189221;23;20455;-87
2021/05/18 19:00:20;;;;;;;3.83;1.70;;;11.70;99.90;;;;;;6192628;23;20410;-85
2021/05/18 19:02:50;;;;;;;2.53;1.93;;;11.70;99.90;;;;;;6189524;23;20501;-86
2021/05/18 19:05:31;;;;;;;1.90;1.27;;;11.60;99.90;;;;;;6194027;23;20695;-86
2021/05/18 19:08:18;;;;;;;5.93;1.73;;;11.60;99.90;;;;;;6189968;23;20434;-87
2021/05/18 19:11:04;;;;;;;3.50;1.50;;;11.50;99.90;;;;;;6188596;23;20405;-86
2021/05/18 19:13:30;;;;;;;1.50;1.40;;;11.60;99.90;;;;;;6188974;23;20395;-86
2021/05/18 19:15:57;;;;;;;2.60;1.30;;;11.60;99.90;;;;;;6189371;23;20995;-86
2021/05/18 19:18:23;;;;;;;3.70;1.63;;;11.70;99.90;;;;;;6191850;23;20179;-87
2021/05/18 19:20:50;;;;;;;2.67;1.37;;;11.70;99.90;;;;;;6199073;23;20422;-86
2021/05/18 19:23:17;;;;;;;1.93;1.60;;;11.60;99.90;;;;;;6207704;22;20406;-88
2021/05/18 19:25:43;;;;;;;4.93;2.50;;;11.70;99.90;;;;;;6203446;22;20395;-86
2021/05/18 19:28:11;;;;;;;2.93;2.30;;;11.60;99.90;;;;;;6203009;23;20476;-84
2021/05/18 19:30:38;;;;;;;2.40;2.10;;;11.60;99.90;;;;;;6196752;22;20405;-86
2021/05/18 19:33:06;;;;;;;3.63;2.50;;;11.50;99.90;;;;;;6196674;23;20413;-86
2021/05/18 19:35:40;;;;;;;3.47;2.23;;;11.60;99.90;;;;;;6190678;23;20409;-86
2021/05/18 19:43:53;;;;;;;1.53;1.10;;;11.70;99.90;;;;;;6201107;23;20365;-86